High wind

Not for real navigation. The accuracy of this data is not assured See disclaimer for more information



ICAO NAME COUNTRY WIND Kt GUST Kt VIS m TEMP/DEW C BARO METAR
KMWN Mount Washington NH United States 61 70 9999 -7/-7 29.92 KMWN 240355Z 27061G70KT 0SM -SHSN FZFG BLSN VV000 M07/M07 RMK VRY LGT ICG
EGOV Valley United Kingdom 42 52 1500 10/10 29.32 EGOV 240350Z AUTO 18042G52KT 1500 RA BKN005/// SCT015/// 10/10 Q0993
CWEK Grey Islet Meteorological Aero Canada 38 45 9999 4/1 29.92 CWEK 240400Z AUTO 05038G45KT 04/01 RMK AO1 6016 PK WND 05046/0320 SLP924 T00350010 50004
EGOP Pembrey Sands United Kingdom 38 0 7000 11/10 29.59 EGOP 240350Z AUTO 20038KT 7000 // BKN004/// BKN070/// 11/10 Q1002
EHFZ 37 0 9000 8/7 29.71 EHFZ 240455Z AUTO 20037KT 9000 NSC 08/07 Q1006 W///H///

Show more